Time;durP1;ratioP1;P1;durP2;ratioP2;P2;SDS_P1;SDS_P2;PMS_P1;PMS_P2;Temp;Humidity;BMP_temperature;BMP_pressure;BME280_temperature;BME280_humidity;BME280_pressure;Samples;Min_cycle;Max_cycle;Signal;HPM_P1;HPM_P2
2022/02/15 00:00:47;;;;;;;16.60;15.33;;;7.60;99.90;;;;;;4992138;28;20885;-70
2022/02/15 00:03:15;;;;;;;17.40;16.10;;;7.60;99.90;;;;;;4998672;28;20465;-69
2022/02/15 00:05:42;;;;;;;17.30;15.87;;;7.60;99.90;;;;;;4997238;28;20470;-71
2022/02/15 00:08:09;;;;;;;16.50;15.17;;;7.60;99.90;;;;;;4996835;28;20854;-71
2022/02/15 00:10:36;;;;;;;15.40;14.10;;;7.60;99.90;;;;;;4996260;28;20483;-71
2022/02/15 00:13:03;;;;;;;16.50;15.20;;;7.60;99.90;;;;;;4993371;28;20481;-72
2022/02/15 00:15:31;;;;;;;16.37;14.97;;;7.60;99.90;;;;;;4998465;28;20492;-69
2022/02/15 00:17:59;;;;;;;17.80;16.30;;;7.50;99.90;;;;;;4993563;28;20474;-69
2022/02/15 00:20:28;;;;;;;15.80;14.77;;;7.50;99.90;;;;;;4996935;28;20466;-70
2022/02/15 00:22:55;;;;;;;15.37;14.37;;;7.50;99.90;;;;;;4993767;28;20836;-69
2022/02/15 00:25:22;;;;;;;16.43;15.10;;;7.60;99.90;;;;;;4999822;28;20467;-70
2022/02/15 00:27:49;;;;;;;16.17;15.10;;;7.60;99.90;;;;;;4998086;28;20493;-70
2022/02/15 00:30:16;;;;;;;16.03;14.90;;;7.60;99.90;;;;;;4997895;28;20460;-70
2022/02/15 00:32:43;;;;;;;17.03;15.50;;;7.60;99.90;;;;;;4993101;28;20466;-71
2022/02/15 00:35:10;;;;;;;16.60;15.33;;;7.50;99.90;;;;;;5000626;28;20465;-70
2022/02/15 00:37:39;;;;;;;16.40;15.30;;;7.50;99.90;;;;;;4997983;28;20470;-70
2022/02/15 00:40:07;;;;;;;17.87;16.33;;;7.50;99.90;;;;;;5001764;28;20477;-71
2022/02/15 00:42:34;;;;;;;17.07;15.67;;;7.50;99.90;;;;;;5002000;28;20464;-72
2022/02/15 00:45:01;;;;;;;16.77;15.37;;;7.60;99.90;;;;;;5003193;28;20595;-69
2022/02/15 00:47:29;;;;;;;17.10;15.30;;;7.60;99.90;;;;;;4998917;28;20487;-70
2022/02/15 00:49:57;;;;;;;16.40;15.03;;;7.60;99.90;;;;;;5000125;28;20474;-69
2022/02/15 00:52:24;;;;;;;16.90;15.53;;;7.50;99.90;;;;;;4995755;28;20469;-70
2022/02/15 00:54:52;;;;;;;16.07;14.67;;;7.50;99.90;;;;;;4996854;28;20506;-70
2022/02/15 00:57:21;;;;;;;16.90;15.60;;;7.50;99.90;;;;;;5001608;28;20468;-70
2022/02/15 00:59:48;;;;;;;16.80;15.40;;;7.40;99.90;;;;;;5002141;28;20461;-72
2022/02/15 01:02:16;;;;;;;18.37;16.50;;;7.50;99.90;;;;;;4998931;28;20472;-69
2022/02/15 01:04:43;;;;;;;16.30;15.07;;;7.60;99.90;;;;;;4999810;28;21097;-71
2022/02/15 01:07:11;;;;;;;19.43;15.50;;;7.60;99.90;;;;;;5002543;28;20588;-70
2022/02/15 01:09:39;;;;;;;16.70;15.17;;;7.60;99.90;;;;;;4995281;28;21174;-70
2022/02/15 01:12:09;;;;;;;16.43;14.77;;;7.50;99.90;;;;;;4998556;28;20457;-72
2022/02/15 01:14:36;;;;;;;16.37;15.37;;;7.50;99.90;;;;;;5004206;28;20488;-70
2022/02/15 01:17:03;;;;;;;16.97;15.17;;;7.40;99.90;;;;;;4999080;28;21011;-70
2022/02/15 01:19:30;;;;;;;16.00;14.90;;;7.30;99.90;;;;;;4998389;28;20468;-70
2022/02/15 01:21:57;;;;;;;16.40;15.30;;;7.30;99.90;;;;;;5000871;28;20478;-70
2022/02/15 01:24:24;;;;;;;15.83;14.70;;;7.30;99.90;;;;;;4999207;28;20469;-70
2022/02/15 01:26:51;;;;;;;16.80;15.60;;;7.40;99.90;;;;;;5004812;28;20503;-69
2022/02/15 01:29:19;;;;;;;17.00;15.63;;;7.30;99.90;;;;;;4999022;28;20502;-69
2022/02/15 01:31:47;;;;;;;16.43;15.13;;;7.40;99.90;;;;;;4999202;28;20981;-70
2022/02/15 01:34:15;;;;;;;17.30;15.47;;;7.30;99.90;;;;;;4994573;28;20495;-73
2022/02/15 01:36:42;;;;;;;19.20;15.77;;;7.30;99.90;;;;;;4997668;28;20473;-73
2022/02/15 01:39:08;;;;;;;17.63;15.40;;;7.30;99.90;;;;;;4997281;28;20467;-69
2022/02/15 01:41:35;;;;;;;17.47;16.17;;;7.20;99.90;;;;;;4995778;28;20461;-72
2022/02/15 01:44:02;;;;;;;17.27;15.47;;;7.20;99.90;;;;;;4996201;28;20810;-72
2022/02/15 01:46:31;;;;;;;16.23;14.90;;;7.10;99.90;;;;;;4994658;28;20466;-70
2022/02/15 01:48:58;;;;;;;18.37;15.60;;;7.10;99.90;;;;;;4997497;28;20886;-71
2022/02/15 01:51:26;;;;;;;16.83;15.63;;;7.00;99.90;;;;;;5004752;28;20978;-70
2022/02/15 01:53:53;;;;;;;18.27;16.50;;;7.00;99.90;;;;;;5003146;28;20456;-70
2022/02/15 01:56:20;;;;;;;17.03;15.60;;;7.00;99.90;;;;;;4995074;28;20462;-71
2022/02/15 01:58:47;;;;;;;18.73;16.20;;;7.00;99.90;;;;;;5002499;28;20569;-71
2022/02/15 02:01:14;;;;;;;16.80;15.43;;;6.90;99.90;;;;;;5001726;28;20461;-73
2022/02/15 02:03:42;;;;;;;17.30;16.03;;;6.80;99.90;;;;;;5001779;28;20462;-73
2022/02/15 02:06:08;;;;;;;17.33;15.83;;;6.80;99.90;;;;;;4999028;28;20457;-69
2022/02/15 02:08:35;;;;;;;18.30;16.80;;;6.80;99.90;;;;;;4995894;28;20487;-70
2022/02/15 02:11:04;;;;;;;16.13;14.93;;;6.70;99.90;;;;;;4998917;28;20206;-70
2022/02/15 02:13:31;;;;;;;21.83;16.40;;;6.80;99.90;;;;;;5001324;28;20513;-70
2022/02/15 02:15:58;;;;;;;17.63;16.00;;;6.90;99.90;;;;;;5008742;28;20478;-70
2022/02/15 02:18:25;;;;;;;16.97;15.67;;;6.90;99.90;;;;;;5002694;28;20817;-70
2022/02/15 02:20:53;;;;;;;18.10;16.40;;;6.90;99.90;;;;;;4998776;28;20477;-70
2022/02/15 02:23:23;;;;;;;18.57;16.97;;;6.90;99.90;;;;;;4998067;28;20498;-72
2022/02/15 02:25:51;;;;;;;18.10;16.70;;;6.90;99.90;;;;;;4994685;28;20478;-73
2022/02/15 02:28:18;;;;;;;18.87;16.70;;;6.90;99.90;;;;;;4997702;28;20543;-73
2022/02/15 02:30:46;;;;;;;18.03;16.43;;;6.90;99.90;;;;;;4996778;28;20467;-72
2022/02/15 02:33:13;;;;;;;18.20;16.70;;;7.00;99.90;;;;;;5001902;28;20528;-70
2022/02/15 02:35:40;;;;;;;19.57;17.57;;;7.00;99.90;;;;;;4999353;28;20470;-70
2022/02/15 02:38:07;;;;;;;18.27;16.70;;;7.10;99.90;;;;;;4998132;28;20905;-70
2022/02/15 02:40:36;;;;;;;19.33;17.60;;;7.00;99.90;;;;;;5000289;28;20993;-70
2022/02/15 02:43:04;;;;;;;18.30;16.50;;;7.10;99.90;;;;;;4998575;28;20478;-70
2022/02/15 02:45:30;;;;;;;17.67;16.33;;;7.00;99.90;;;;;;4999253;28;20523;-70
2022/02/15 02:47:59;;;;;;;16.93;15.93;;;7.00;99.90;;;;;;5002237;28;20478;-70
2022/02/15 02:50:27;;;;;;;18.33;16.40;;;7.00;99.90;;;;;;4999596;28;20462;-70
2022/02/15 02:52:55;;;;;;;18.17;16.93;;;7.00;99.90;;;;;;4997503;28;20470;-70
2022/02/15 02:55:22;;;;;;;17.67;16.17;;;7.10;99.90;;;;;;5001165;28;20462;-70
2022/02/15 02:57:51;;;;;;;18.30;16.90;;;6.90;99.90;;;;;;5001037;28;20531;-70
2022/02/15 03:00:19;;;;;;;20.07;15.77;;;7.00;99.90;;;;;;5001422;28;20472;-73
2022/02/15 03:02:45;;;;;;;18.90;16.90;;;7.00;99.90;;;;;;4999337;28;20952;-69
2022/02/15 03:05:12;;;;;;;17.67;16.00;;;7.00;99.90;;;;;;4996407;28;20534;-70
2022/02/15 03:07:39;;;;;;;17.40;15.67;;;6.90;99.90;;;;;;4998217;28;20488;-70
2022/02/15 03:10:07;;;;;;;17.70;16.40;;;6.90;99.90;;;;;;5000522;28;20580;-70
2022/02/15 03:12:34;;;;;;;18.07;16.47;;;6.90;99.90;;;;;;5001292;28;20842;-73
2022/02/15 03:15:03;;;;;;;17.47;16.27;;;6.90;99.90;;;;;;4998805;28;20494;-69
2022/02/15 03:17:30;;;;;;;18.90;17.20;;;6.90;99.90;;;;;;4998487;28;20983;-72
2022/02/15 03:19:57;;;;;;;18.57;16.73;;;7.00;99.90;;;;;;4992457;28;20548;-70
2022/02/15 03:22:25;;;;;;;18.40;16.73;;;6.90;99.90;;;;;;4992757;28;21023;-70
2022/02/15 03:24:52;;;;;;;18.70;16.77;;;6.90;99.90;;;;;;5001624;28;20460;-70
2022/02/15 03:27:19;;;;;;;17.87;16.57;;;6.90;99.90;;;;;;5000858;28;20466;-70
2022/02/15 03:29:46;;;;;;;18.20;16.90;;;6.80;99.90;;;;;;4997908;28;20457;-72
2022/02/15 03:32:14;;;;;;;19.47;17.93;;;6.80;99.90;;;;;;5001041;28;20474;-72
2022/02/15 03:34:41;;;;;;;18.03;16.37;;;6.90;99.90;;;;;;5001030;28;20470;-71
2022/02/15 03:37:09;;;;;;;20.00;16.50;;;7.00;99.90;;;;;;4990289;28;20462;-70
2022/02/15 03:39:36;;;;;;;19.07;17.57;;;6.90;99.90;;;;;;4998795;28;21230;-69
2022/02/15 03:44:48;;;;;;;18.57;17.00;;;6.80;99.90;;;;;;4997931;28;20467;-70
2022/02/15 03:47:17;;;;;;;18.67;16.93;;;6.80;99.90;;;;;;4994518;28;20562;-70
2022/02/15 03:49:44;;;;;;;19.17;17.40;;;6.80;99.90;;;;;;4995466;28;20506;-70
2022/02/15 03:52:10;;;;;;;18.90;17.30;;;6.80;99.90;;;;;;5001570;28;20567;-70
2022/02/15 03:54:37;;;;;;;19.57;17.97;;;6.80;99.90;;;;;;4997148;28;20462;-70
2022/02/15 03:57:04;;;;;;;20.93;18.90;;;6.80;99.90;;;;;;5003389;28;20465;-70
2022/02/15 03:59:32;;;;;;;18.60;17.30;;;6.70;99.90;;;;;;4999074;28;20502;-70
2022/02/15 04:01:59;;;;;;;19.10;17.67;;;6.60;99.90;;;;;;4994509;28;20882;-72
2022/02/15 04:04:27;;;;;;;18.30;17.00;;;6.60;99.90;;;;;;4996119;28;20472;-70
2022/02/15 04:06:54;;;;;;;20.90;17.37;;;6.60;99.90;;;;;;4992466;28;20461;-71
2022/02/15 04:09:20;;;;;;;19.60;17.80;;;6.50;99.90;;;;;;4997092;28;20486;-70
2022/02/15 04:11:47;;;;;;;20.40;18.40;;;6.50;99.90;;;;;;5004503;28;20842;-72
2022/02/15 04:14:14;;;;;;;20.03;18.43;;;6.50;99.90;;;;;;5002032;28;20485;-69
2022/02/15 04:16:41;;;;;;;18.83;17.13;;;6.40;99.90;;;;;;5004098;28;20505;-70
2022/02/15 04:19:08;;;;;;;18.80;17.40;;;6.40;99.90;;;;;;4999445;28;20491;-70
2022/02/15 04:21:36;;;;;;;19.87;17.70;;;6.40;99.90;;;;;;4999648;28;20476;-70
2022/02/15 04:24:04;;;;;;;18.90;17.30;;;6.40;99.90;;;;;;4997234;28;20474;-72
2022/02/15 04:26:31;;;;;;;19.10;17.37;;;6.40;99.90;;;;;;5004303;28;20939;-70
2022/02/15 04:28:58;;;;;;;18.20;16.70;;;6.50;99.90;;;;;;5004544;28;20558;-70
2022/02/15 04:31:24;;;;;;;20.20;18.17;;;6.40;99.90;;;;;;4999120;28;20465;-70
2022/02/15 04:33:51;;;;;;;19.90;18.20;;;6.40;99.90;;;;;;4998331;28;20487;-70
2022/02/15 04:36:18;;;;;;;20.40;18.23;;;6.50;99.90;;;;;;4998595;28;20839;-70
2022/02/15 04:38:46;;;;;;;19.70;17.90;;;6.40;99.90;;;;;;4998239;28;20973;-73
2022/02/15 04:41:13;;;;;;;19.87;17.87;;;6.50;99.90;;;;;;5001161;28;20936;-70
2022/02/15 04:43:40;;;;;;;18.90;17.20;;;6.40;99.90;;;;;;5005026;28;20892;-70
2022/02/15 04:46:07;;;;;;;18.97;17.40;;;6.50;99.90;;;;;;5001669;28;20466;-70
2022/02/15 04:48:34;;;;;;;19.40;17.57;;;6.40;99.90;;;;;;4997130;28;20489;-70
2022/02/15 04:51:01;;;;;;;19.33;17.43;;;6.50;99.90;;;;;;4997563;28;20466;-70
2022/02/15 04:53:27;;;;;;;19.50;17.97;;;6.50;99.90;;;;;;5007872;28;20464;-73
2022/02/15 04:55:56;;;;;;;18.13;16.63;;;6.50;99.90;;;;;;5001175;28;20469;-70
2022/02/15 04:58:22;;;;;;;20.30;18.27;;;6.40;99.90;;;;;;4996442;28;20960;-72
2022/02/15 05:00:49;;;;;;;21.20;19.10;;;6.40;99.90;;;;;;4978285;28;20469;-70
2022/02/15 05:03:16;;;;;;;18.50;17.00;;;6.40;99.90;;;;;;4975848;28;21053;-70
2022/02/15 05:05:43;;;;;;;20.43;18.27;;;6.30;99.90;;;;;;4999118;28;21198;-70
2022/02/15 05:08:10;;;;;;;18.60;16.80;;;6.30;99.90;;;;;;4995523;28;20494;-73
2022/02/15 05:10:38;;;;;;;19.70;17.90;;;6.30;99.90;;;;;;4993114;28;21349;-70
2022/02/15 05:13:08;;;;;;;20.33;18.40;;;6.40;99.90;;;;;;4979123;28;20469;-71
2022/02/15 05:15:35;;;;;;;19.63;17.73;;;6.40;99.90;;;;;;4977091;28;20498;-70
2022/02/15 05:18:03;;;;;;;20.13;18.33;;;6.40;99.90;;;;;;4976804;28;20477;-72
2022/02/15 05:20:30;;;;;;;19.40;18.00;;;6.40;99.90;;;;;;4976336;28;20465;-72
2022/02/15 05:22:57;;;;;;;19.90;17.87;;;6.30;99.90;;;;;;4977654;28;20471;-70
2022/02/15 05:25:24;;;;;;;19.40;17.80;;;6.30;99.90;;;;;;4978557;28;20474;-71
2022/02/15 05:27:52;;;;;;;19.47;17.57;;;6.30;99.90;;;;;;4977391;28;20458;-72
2022/02/15 05:30:20;;;;;;;21.40;19.30;;;6.30;99.90;;;;;;4977644;28;20613;-70
2022/02/15 05:32:47;;;;;;;21.80;19.60;;;6.40;99.90;;;;;;4978664;28;20499;-70
2022/02/15 05:35:14;;;;;;;22.27;18.60;;;6.30;99.90;;;;;;4977788;28;20833;-70
2022/02/15 05:37:41;;;;;;;20.43;18.50;;;6.20;99.90;;;;;;4976200;28;20825;-71
2022/02/15 05:40:09;;;;;;;20.33;18.23;;;6.10;99.90;;;;;;4978469;28;20617;-71
2022/02/15 05:42:37;;;;;;;19.07;17.67;;;6.10;99.90;;;;;;4976715;28;20464;-70
2022/02/15 05:45:04;;;;;;;19.90;18.10;;;6.10;99.90;;;;;;4976758;28;20470;-71
2022/02/15 05:47:32;;;;;;;18.87;16.97;;;6.20;99.90;;;;;;4977177;28;20826;-72
2022/02/15 05:52:43;;;;;;;19.43;17.30;;;6.20;99.90;;;;;;4977102;28;20472;-70
2022/02/15 05:55:11;;;;;;;18.80;17.10;;;6.10;99.90;;;;;;4978526;28;23129;-70
2022/02/15 05:57:38;;;;;;;20.20;18.13;;;6.10;99.90;;;;;;4978035;28;20456;-70
2022/02/15 06:00:07;;;;;;;19.23;17.53;;;6.20;99.90;;;;;;4976658;28;20476;-70
2022/02/15 06:02:35;;;;;;;19.53;17.57;;;6.10;99.90;;;;;;4976249;28;20556;-70
2022/02/15 06:05:02;;;;;;;20.23;18.47;;;6.10;99.90;;;;;;4975589;28;20463;-70
2022/02/15 06:07:29;;;;;;;22.43;17.90;;;6.20;99.90;;;;;;4977719;28;21172;-73
2022/02/15 06:09:57;;;;;;;19.83;18.27;;;6.20;99.90;;;;;;4976708;28;20493;-70
2022/02/15 06:12:24;;;;;;;20.43;18.30;;;6.10;99.90;;;;;;4977508;28;20929;-70
2022/02/15 06:14:51;;;;;;;21.30;19.20;;;6.10;99.90;;;;;;4977238;28;20505;-71
2022/02/15 06:17:18;;;;;;;21.37;19.13;;;6.10;99.90;;;;;;4977836;28;20451;-71
2022/02/15 06:19:46;;;;;;;21.90;19.90;;;6.20;99.90;;;;;;4977913;28;20553;-70
2022/02/15 06:22:13;;;;;;;22.87;19.43;;;6.10;99.90;;;;;;4976602;28;20463;-73
2022/02/15 06:24:40;;;;;;;21.03;18.70;;;6.20;99.90;;;;;;4978158;28;20522;-70
2022/02/15 06:27:06;;;;;;;21.03;18.80;;;6.30;99.90;;;;;;4977205;28;20860;-70
2022/02/15 06:29:35;;;;;;;23.00;20.80;;;6.20;99.90;;;;;;4977735;28;20498;-72
2022/02/15 06:32:02;;;;;;;22.50;20.50;;;6.20;99.90;;;;;;4976784;28;20516;-72
2022/02/15 06:34:29;;;;;;;22.80;20.47;;;6.20;99.90;;;;;;4976664;28;20981;-72
2022/02/15 06:36:57;;;;;;;22.60;20.27;;;6.30;99.90;;;;;;4976723;28;20465;-71
2022/02/15 06:39:24;;;;;;;24.90;22.40;;;6.30;99.90;;;;;;4976356;28;20461;-70
2022/02/15 06:41:50;;;;;;;27.33;23.77;;;6.30;99.90;;;;;;4977355;28;20471;-72
2022/02/15 06:44:17;;;;;;;28.10;23.23;;;6.10;99.90;;;;;;4976604;28;20481;-71
2022/02/15 06:46:44;;;;;;;29.10;23.50;;;6.20;99.90;;;;;;4976645;28;20465;-70
2022/02/15 06:49:11;;;;;;;23.67;21.37;;;6.20;99.90;;;;;;4976449;28;20499;-68
2022/02/15 06:51:38;;;;;;;24.00;21.50;;;6.20;99.90;;;;;;4980278;28;20762;-70
2022/02/15 06:54:06;;;;;;;25.47;22.80;;;6.20;99.90;;;;;;4999534;28;20468;-70
2022/02/15 06:56:34;;;;;;;24.17;21.77;;;6.30;99.90;;;;;;4993063;28;20821;-72
2022/02/15 06:59:02;;;;;;;24.73;22.10;;;6.20;99.90;;;;;;4982271;28;20591;-69
2022/02/15 07:01:29;;;;;;;24.97;22.37;;;6.20;99.90;;;;;;4973151;28;20459;-71
2022/02/15 07:03:56;;;;;;;28.43;23.70;;;6.30;99.90;;;;;;4972838;28;20480;-70
2022/02/15 07:06:23;;;;;;;26.80;23.57;;;6.30;99.90;;;;;;4974094;28;20826;-72
2022/02/15 07:08:50;;;;;;;32.10;25.10;;;6.20;99.90;;;;;;4972545;28;20497;-70
2022/02/15 07:11:18;;;;;;;41.70;24.80;;;6.30;99.90;;;;;;4974050;28;20485;-70
2022/02/15 07:13:45;;;;;;;35.20;26.77;;;6.30;99.90;;;;;;4972423;28;21000;-70
2022/02/15 07:16:12;;;;;;;32.33;23.60;;;6.40;99.90;;;;;;4973419;28;20637;-69
2022/02/15 07:18:42;;;;;;;28.73;25.80;;;6.30;99.90;;;;;;4975509;28;20497;-70
2022/02/15 07:21:10;;;;;;;32.70;25.67;;;6.40;99.90;;;;;;4974187;28;20464;-70
2022/02/15 07:23:37;;;;;;;29.30;26.07;;;6.40;99.90;;;;;;4974774;28;20476;-70
2022/02/15 07:26:04;;;;;;;34.30;24.40;;;6.40;99.90;;;;;;4974756;28;20475;-70
2022/02/15 07:28:32;;;;;;;27.00;24.10;;;6.30;99.90;;;;;;4973886;28;20469;-70
2022/02/15 07:30:59;;;;;;;33.33;23.50;;;6.30;99.90;;;;;;4974456;28;20478;-72
2022/02/15 07:33:26;;;;;;;34.17;26.40;;;6.40;99.90;;;;;;4972995;28;21201;-71
2022/02/15 07:35:53;;;;;;;27.63;24.73;;;6.40;99.90;;;;;;4973580;28;20489;-70
2022/02/15 07:38:20;;;;;;;38.60;29.10;;;6.50;99.90;;;;;;4974502;28;20466;-70
2022/02/15 07:40:47;;;;;;;34.23;26.87;;;6.50;99.90;;;;;;4975032;28;20469;-70
2022/02/15 07:43:14;;;;;;;31.87;27.30;;;6.50;99.90;;;;;;4973858;28;20463;-71
2022/02/15 07:45:42;;;;;;;33.60;25.93;;;6.60;99.90;;;;;;4973417;28;20467;-70
2022/02/15 07:48:09;;;;;;;32.10;26.20;;;6.50;99.90;;;;;;4974042;28;20934;-71
2022/02/15 07:50:37;;;;;;;28.37;24.53;;;6.50;99.90;;;;;;4974994;28;20484;-71
2022/02/15 07:53:05;;;;;;;32.83;25.37;;;6.60;99.90;;;;;;4972911;28;20498;-72
2022/02/15 07:55:32;;;;;;;34.67;27.33;;;6.70;99.90;;;;;;4973815;28;20709;-71
2022/02/15 07:57:59;;;;;;;36.40;25.47;;;6.60;99.90;;;;;;4972860;28;20477;-70
2022/02/15 08:00:26;;;;;;;36.70;24.73;;;6.60;99.90;;;;;;4973269;28;20549;-70
2022/02/15 08:02:55;;;;;;;27.70;24.73;;;6.70;99.90;;;;;;4974293;28;22838;-73
2022/02/15 08:05:23;;;;;;;29.87;25.10;;;6.60;99.90;;;;;;4972466;28;20467;-71
2022/02/15 08:07:51;;;;;;;29.17;24.53;;;6.60;99.90;;;;;;4973765;28;21307;-71
2022/02/15 08:10:19;;;;;;;25.50;22.90;;;6.60;99.90;;;;;;4974844;28;20929;-70
2022/02/15 08:12:48;;;;;;;33.33;23.50;;;6.70;99.90;;;;;;4971941;28;20978;-70
2022/02/15 08:15:15;;;;;;;29.07;24.80;;;6.80;99.90;;;;;;4971555;28;20527;-70
2022/02/15 08:17:42;;;;;;;24.40;21.80;;;6.90;99.90;;;;;;4973800;28;20465;-70
2022/02/15 08:20:11;;;;;;;30.67;24.30;;;6.90;99.90;;;;;;4971598;28;20470;-70
2022/02/15 08:22:38;;;;;;;27.77;24.80;;;6.90;99.90;;;;;;4970976;28;21001;-71
2022/02/15 08:25:07;;;;;;;26.07;23.37;;;7.00;99.90;;;;;;4972808;28;20463;-70
2022/02/15 08:27:34;;;;;;;28.87;23.63;;;7.00;99.90;;;;;;4971458;28;20944;-72
2022/02/15 08:30:01;;;;;;;24.90;22.43;;;7.10;99.90;;;;;;4972759;28;20516;-71
2022/02/15 08:32:28;;;;;;;26.30;23.70;;;7.10;99.90;;;;;;4971573;28;20482;-70
2022/02/15 08:34:55;;;;;;;26.57;23.70;;;7.00;99.90;;;;;;4971228;28;21063;-72
2022/02/15 08:37:23;;;;;;;25.97;23.20;;;7.00;99.90;;;;;;4970756;28;20584;-70
2022/02/15 08:39:50;;;;;;;24.63;22.40;;;7.00;99.90;;;;;;4971218;28;20960;-71
2022/02/15 08:42:17;;;;;;;24.97;22.73;;;7.10;99.90;;;;;;4970491;28;20471;-70
2022/02/15 08:44:44;;;;;;;24.60;22.00;;;7.10;99.90;;;;;;4971323;28;20484;-71
2022/02/15 08:47:11;;;;;;;22.83;20.70;;;7.10;99.90;;;;;;4970780;28;20476;-72
2022/02/15 08:49:39;;;;;;;26.30;23.60;;;7.10;99.90;;;;;;4971606;28;20485;-71
2022/02/15 08:52:06;;;;;;;27.57;22.20;;;7.10;99.90;;;;;;4970786;28;20459;-69
2022/02/15 08:54:35;;;;;;;24.57;22.27;;;7.20;99.90;;;;;;4972360;28;20962;-70
2022/02/15 08:57:02;;;;;;;25.57;23.10;;;7.30;99.90;;;;;;4974927;28;20596;-70
2022/02/15 08:59:28;;;;;;;24.80;22.30;;;7.20;99.90;;;;;;4974724;28;20744;-70
2022/02/15 09:01:55;;;;;;;25.47;22.97;;;7.30;99.90;;;;;;4962454;28;20467;-70
2022/02/15 09:04:22;;;;;;;25.47;23.07;;;7.20;99.90;;;;;;4970078;28;20609;-73
2022/02/15 09:06:51;;;;;;;24.77;22.50;;;7.10;99.90;;;;;;4969644;28;21297;-70
2022/02/15 09:09:18;;;;;;;25.77;23.33;;;7.10;99.90;;;;;;4968009;28;20466;-70
2022/02/15 09:11:46;;;;;;;25.93;23.07;;;7.10;99.90;;;;;;4970894;28;20492;-72
2022/02/15 09:14:13;;;;;;;23.90;21.47;;;7.20;99.90;;;;;;4969742;28;20506;-71
2022/02/15 09:16:41;;;;;;;26.57;23.80;;;7.30;99.90;;;;;;4969989;28;20475;-70
2022/02/15 09:19:07;;;;;;;26.47;22.90;;;7.50;99.90;;;;;;4971341;28;20499;-72
2022/02/15 09:21:35;;;;;;;25.47;22.90;;;7.50;99.90;;;;;;4971039;28;20457;-70
2022/02/15 09:24:02;;;;;;;28.33;23.33;;;7.50;99.90;;;;;;4973855;28;20469;-70
2022/02/15 09:26:29;;;;;;;25.43;23.07;;;7.50;99.90;;;;;;4972409;28;20634;-71
2022/02/15 09:28:57;;;;;;;26.97;24.50;;;7.60;99.90;;;;;;4972234;28;21060;-70
2022/02/15 09:31:25;;;;;;;25.33;22.87;;;7.70;99.90;;;;;;4972282;28;21169;-71
2022/02/15 09:33:53;;;;;;;25.13;22.90;;;7.80;99.90;;;;;;4971281;28;20769;-69
2022/02/15 09:36:20;;;;;;;24.03;21.93;;;7.80;99.90;;;;;;4971767;28;20825;-70
2022/02/15 09:38:47;;;;;;;24.83;22.27;;;7.90;99.90;;;;;;4980118;28;20485;-70
2022/02/15 09:41:14;;;;;;;27.20;24.30;;;7.90;99.90;;;;;;4994001;28;20480;-70
2022/02/15 09:43:41;;;;;;;25.07;22.30;;;8.10;99.90;;;;;;4992625;28;20461;-70
2022/02/15 09:46:13;;;;;;;26.43;23.63;;;8.10;99.90;;;;;;4978547;28;20590;-69
2022/02/15 09:48:41;;;;;;;24.80;22.80;;;8.20;99.90;;;;;;4972134;28;20581;-70
2022/02/15 09:51:09;;;;;;;26.00;23.40;;;8.10;99.90;;;;;;4970864;28;20864;-72
2022/02/15 09:53:36;;;;;;;24.53;22.23;;;7.90;99.90;;;;;;4969947;28;20469;-70
2022/02/15 09:56:03;;;;;;;24.47;22.40;;;7.80;99.90;;;;;;4969354;28;20471;-70
2022/02/15 09:58:30;;;;;;;22.33;20.20;;;7.80;99.90;;;;;;4970887;28;20811;-70
2022/02/15 10:00:57;;;;;;;24.23;22.10;;;7.90;99.90;;;;;;4971847;28;20455;-70
2022/02/15 10:03:26;;;;;;;23.33;21.00;;;8.10;99.90;;;;;;4971133;28;20844;-73
2022/02/15 10:05:53;;;;;;;23.37;21.10;;;8.20;99.90;;;;;;4971498;28;20462;-72
2022/02/15 10:08:26;;;;;;;25.03;22.50;;;8.10;99.90;;;;;;4971424;28;20497;-69
2022/02/15 10:10:53;;;;;;;22.00;20.20;;;8.40;99.90;;;;;;4971319;28;20590;-70
2022/02/15 10:13:20;;;;;;;21.77;20.17;;;8.70;99.90;;;;;;4971668;28;20462;-69
2022/02/15 10:15:48;;;;;;;20.97;19.37;;;8.90;99.90;;;;;;4971839;28;21241;-71
2022/02/15 10:18:20;;;;;;;22.07;19.90;;;8.70;99.90;;;;;;4971700;28;20480;-70
2022/02/15 10:20:53;;;;;;;20.33;18.83;;;8.50;99.90;;;;;;4971468;28;20470;-70
2022/02/15 10:23:23;;;;;;;21.23;19.60;;;8.40;99.90;;;;;;4972502;28;20829;-71
2022/02/15 10:25:51;;;;;;;20.17;18.87;;;8.60;99.90;;;;;;4973046;28;20901;-69
2022/02/15 10:28:20;;;;;;;20.80;19.30;;;8.70;99.90;;;;;;4970897;28;20769;-71
2022/02/15 10:30:49;;;;;;;20.60;19.10;;;8.50;99.90;;;;;;4972744;28;20550;-70
2022/02/15 10:33:17;;;;;;;19.20;17.80;;;8.40;99.90;;;;;;4975040;28;20492;-70
2022/02/15 10:35:55;;;;;;;20.83;19.30;;;8.70;99.90;;;;;;4986592;28;20463;-70
2022/02/15 10:38:30;;;;;;;25.80;18.17;;;9.20;99.90;;;;;;4998154;28;20466;-70
2022/02/15 10:41:03;;;;;;;19.87;18.23;;;9.30;99.90;;;;;;4974594;28;20504;-70
2022/02/15 10:43:41;;;;;;;20.80;19.40;;;9.30;99.90;;;;;;4972198;28;20445;-70
2022/02/15 10:46:12;;;;;;;20.57;19.20;;;9.30;99.90;;;;;;4973750;28;20499;-72
2022/02/15 10:48:39;;;;;;;19.20;17.90;;;8.80;99.90;;;;;;4972890;28;20481;-71
2022/02/15 10:51:08;;;;;;;20.50;18.50;;;8.80;99.90;;;;;;4967720;28;20876;-70
2022/02/15 10:53:35;;;;;;;18.97;17.67;;;9.20;99.90;;;;;;4967018;28;20480;-71
2022/02/15 10:56:03;;;;;;;18.53;17.00;;;9.50;99.90;;;;;;4965769;28;20473;-69
2022/02/15 10:58:31;;;;;;;17.57;16.33;;;9.40;99.90;;;;;;4972011;28;21389;-70
2022/02/15 11:00:59;;;;;;;19.73;17.87;;;10.10;99.90;;;;;;4973128;28;21188;-69
2022/02/15 11:03:30;;;;;;;18.30;17.13;;;10.30;99.90;;;;;;4972330;28;20461;-71
2022/02/15 11:05:58;;;;;;;19.20;17.87;;;10.50;99.90;;;;;;4974078;28;20476;-71
2022/02/15 11:08:28;;;;;;;17.97;16.40;;;10.50;99.90;;;;;;4973388;28;20461;-73
2022/02/15 11:11:04;;;;;;;17.80;16.50;;;10.50;99.90;;;;;;4973905;28;20861;-71
2022/02/15 11:13:32;;;;;;;18.03;16.73;;;10.30;99.90;;;;;;4973376;28;20483;-69
2022/02/15 11:16:01;;;;;;;18.07;16.80;;;10.80;99.90;;;;;;4975439;28;20482;-72
2022/02/15 11:18:30;;;;;;;17.97;16.73;;;10.90;99.90;;;;;;4973231;28;20557;-69
2022/02/15 11:20:59;;;;;;;18.27;17.27;;;11.00;99.90;;;;;;4974672;28;20959;-70
2022/02/15 11:23:29;;;;;;;18.57;17.47;;;10.90;99.90;;;;;;4972781;28;21643;-70
2022/02/15 11:26:11;;;;;;;18.17;17.00;;;10.60;99.90;;;;;;4970837;28;20472;-70
2022/02/15 11:28:48;;;;;;;17.40;16.40;;;10.20;99.90;;;;;;4974288;28;20500;-70
2022/02/15 11:31:27;;;;;;;17.97;16.70;;;10.00;99.90;;;;;;4973177;28;20497;-71
2022/02/15 11:33:55;;;;;;;18.53;17.30;;;9.70;99.90;;;;;;4973160;28;20839;-73
2022/02/15 11:36:24;;;;;;;18.30;16.90;;;10.20;99.90;;;;;;4972489;28;20898;-70
2022/02/15 11:38:54;;;;;;;17.90;16.60;;;10.70;99.90;;;;;;4973506;28;21275;-71
2022/02/15 11:41:22;;;;;;;17.70;16.60;;;10.80;99.90;;;;;;4972477;28;21099;-71
2022/02/15 11:43:56;;;;;;;18.17;16.83;;;11.20;99.90;;;;;;4973064;28;20497;-70
2022/02/15 11:46:30;;;;;;;17.37;16.27;;;11.30;99.90;;;;;;4972737;28;20498;-71
2022/02/15 11:49:08;;;;;;;17.37;16.37;;;11.20;99.90;;;;;;4972572;28;21269;-69
2022/02/15 11:51:35;;;;;;;16.97;16.17;;;11.20;99.90;;;;;;4971440;28;20908;-70
2022/02/15 11:54:05;;;;;;;18.17;16.93;;;11.00;99.90;;;;;;4972165;28;21034;-70
2022/02/15 11:56:32;;;;;;;17.67;16.57;;;10.90;99.90;;;;;;4972758;28;20464;-71
2022/02/15 11:59:00;;;;;;;18.70;17.20;;;11.00;99.90;;;;;;4972118;28;20480;-71
2022/02/15 12:01:27;;;;;;;18.40;17.20;;;10.70;99.90;;;;;;4972176;28;22311;-69
2022/02/15 12:03:55;;;;;;;17.57;16.37;;;10.70;99.90;;;;;;4973384;28;20471;-72
2022/02/15 12:06:23;;;;;;;19.53;17.83;;;10.70;99.90;;;;;;4972655;28;20745;-72
2022/02/15 12:08:54;;;;;;;18.80;17.60;;;10.70;99.90;;;;;;4972212;28;20487;-72
2022/02/15 12:11:32;;;;;;;18.03;16.80;;;11.10;99.90;;;;;;4972913;28;21106;-71
2022/02/15 12:14:06;;;;;;;18.10;17.00;;;11.20;99.90;;;;;;4971423;28;22539;-72
2022/02/15 12:16:44;;;;;;;17.23;16.33;;;11.60;99.90;;;;;;4970821;28;21291;-71
2022/02/15 12:19:19;;;;;;;18.13;16.93;;;11.50;99.90;;;;;;4973342;28;20461;-71
2022/02/15 12:21:46;;;;;;;19.17;17.97;;;11.90;99.90;;;;;;4970511;28;20472;-71
2022/02/15 12:24:14;;;;;;;19.30;18.00;;;12.20;99.90;;;;;;4970771;28;20466;-70
2022/02/15 12:26:43;;;;;;;17.97;16.83;;;12.10;99.90;;;;;;4976563;28;20467;-68
2022/02/15 12:29:12;;;;;;;18.10;16.73;;;11.70;99.90;;;;;;4973446;28;20622;-68
2022/02/15 12:31:39;;;;;;;18.10;17.00;;;11.50;99.90;;;;;;4974007;28;20481;-72
2022/02/15 12:34:08;;;;;;;18.43;16.93;;;11.60;99.90;;;;;;4973902;28;20488;-71
2022/02/15 12:36:35;;;;;;;18.70;17.13;;;11.20;99.90;;;;;;4975051;28;20467;-71
2022/02/15 12:39:04;;;;;;;17.80;16.50;;;10.60;99.90;;;;;;4975210;28;20465;-72
2022/02/15 12:41:35;;;;;;;17.20;16.00;;;10.90;99.90;;;;;;4972149;28;20705;-70
2022/02/15 12:44:05;;;;;;;17.83;16.70;;;11.10;99.90;;;;;;4975649;28;20988;-71